Time;durP1;ratioP1;P1;durP2;ratioP2;P2;SDS_P1;SDS_P2;PMS_P1;PMS_P2;Temp;Humidity;BMP_temperature;BMP_pressure;BME280_temperature;BME280_humidity;BME280_pressure;Samples;Min_cycle;Max_cycle;Signal;HPM_P1;HPM_P2
2021/05/31 00:00:57;;;;;;;4.18;3.78;;;;;;;12.55;77.75;96314.59;5073709;28;20032;-54
2021/05/31 00:03:23;;;;;;;6.50;4.13;;;;;;;12.47;76.69;96312.31;5073530;28;20016;-56
2021/05/31 00:05:48;;;;;;;5.75;3.97;;;;;;;12.50;76.82;96312.19;5073486;28;20068;-56
2021/05/31 00:08:14;;;;;;;12.82;4.85;;;;;;;12.47;76.72;96314.94;5073478;28;20054;-54
2021/05/31 00:10:40;;;;;;;7.05;4.60;;;;;;;12.43;77.00;96309.00;5073774;28;20020;-53
2021/05/31 00:13:06;;;;;;;5.82;4.40;;;;;;;12.47;77.79;96318.44;5074571;28;20379;-56
2021/05/31 00:15:32;;;;;;;4.90;4.47;;;;;;;12.38;77.21;96318.88;5073425;28;20017;-52
2021/05/31 00:17:57;;;;;;;7.70;5.55;;;;;;;12.36;76.98;96320.72;5073469;28;20489;-54
2021/05/31 00:20:23;;;;;;;5.80;4.18;;;;;;;12.27;77.04;96316.78;5073466;28;20036;-54
2021/05/31 00:22:49;;;;;;;5.00;4.32;;;;;;;12.05;77.44;96309.91;5072158;28;20024;-57
2021/05/31 00:25:17;;;;;;;7.40;5.00;;;;;;;11.91;78.29;96310.56;5073377;28;20363;-53
2021/05/31 00:27:42;;;;;;;5.05;4.55;;;;;;;11.90;78.08;96311.50;5073302;28;20016;-53
2021/05/31 00:30:10;;;;;;;5.60;4.20;;;;;;;11.91;78.71;96313.19;5073209;28;20024;-54
2021/05/31 00:32:36;;;;;;;5.15;4.47;;;;;;;11.90;78.40;96308.88;5073103;28;20048;-55
2021/05/31 00:35:04;;;;;;;6.53;5.07;;;;;;;11.86;78.79;96309.94;5073211;28;20031;-59
2021/05/31 00:37:29;;;;;;;7.57;5.32;;;;;;;11.74;78.94;96303.50;5073045;28;20062;-56
2021/05/31 00:39:55;;;;;;;7.65;4.45;;;;;;;11.61;79.32;96293.59;5073218;28;20463;-55
2021/05/31 00:42:20;;;;;;;6.53;4.75;;;;;;;11.48;79.76;96293.31;5072990;28;20025;-58
2021/05/31 00:44:46;;;;;;;5.95;4.85;;;;;;;11.43;80.21;96290.03;5073080;28;20021;-54
2021/05/31 00:47:11;;;;;;;10.18;5.43;;;;;;;11.54;80.23;96297.41;5072982;28;20107;-56
2021/05/31 00:49:38;;;;;;;6.10;5.13;;;;;;;11.49;80.06;96299.38;5072936;28;20048;-55
2021/05/31 00:52:06;;;;;;;6.88;5.40;;;;;;;11.50;80.39;96301.91;5073088;28;20052;-55
2021/05/31 00:54:32;;;;;;;7.70;5.22;;;;;;;11.49;80.28;96292.38;5072995;28;20024;-53
2021/05/31 00:56:58;;;;;;;7.72;5.47;;;;;;;11.50;80.04;96288.81;5073061;28;20025;-57
2021/05/31 00:59:23;;;;;;;9.60;5.38;;;;;;;11.61;80.29;96296.19;5072985;28;20016;-56
2021/05/31 01:01:49;;;;;;;8.57;6.00;;;;;;;11.67;79.84;96291.56;5072840;28;20028;-56
2021/05/31 01:04:16;;;;;;;7.18;4.88;;;;;;;11.49;79.49;96295.00;5072912;28;20467;-52
2021/05/31 01:06:50;;;;;;;7.50;6.03;;;;;;;11.49;80.28;96292.38;5072819;28;20127;-51
2021/05/31 01:09:33;;;;;;;6.13;5.38;;;;;;;11.55;79.76;96293.84;5072845;28;20039;-55
2021/05/31 01:12:07;;;;;;;6.13;5.20;;;;;;;11.49;79.70;96291.50;5072879;28;20036;-54
2021/05/31 01:14:36;;;;;;;6.25;4.95;;;;;;;11.47;79.58;96291.59;5072822;28;20025;-57
2021/05/31 01:17:18;;;;;;;5.80;5.20;;;;;;;11.44;79.78;96289.09;5072660;28;20118;-55
2021/05/31 01:19:53;;;;;;;7.15;5.93;;;;;;;11.43;80.17;96284.78;5072749;28;20043;-54
2021/05/31 01:22:29;;;;;;;7.43;5.75;;;;;;;11.33;80.65;96273.03;5076604;28;20486;-55
2021/05/31 01:25:03;;;;;;;6.15;5.50;;;;;;;11.26;80.38;96275.09;5076708;28;20025;-52
2021/05/31 01:28:04;;;;;;;8.48;6.55;;;;;;;11.23;81.06;96272.63;5076569;28;20390;-57
2021/05/31 01:30:31;;;;;;;8.85;5.80;;;;;;;11.19;80.94;96266.66;5076554;28;20038;-54
2021/05/31 01:33:01;;;;;;;6.05;5.07;;;;;;;11.10;81.47;96270.53;5076487;28;20040;-52
2021/05/31 01:35:31;;;;;;;6.40;4.45;;;;;;;11.07;81.42;96262.81;5076489;28;20032;-56
2021/05/31 01:37:59;;;;;;;6.82;5.03;;;;;;;11.06;81.64;96268.97;5076167;28;20506;-54
2021/05/31 01:40:25;;;;;;;6.15;4.72;;;;;;;11.04;81.70;96269.94;5076252;28;20509;-53
2021/05/31 01:42:52;;;;;;;8.65;4.25;;;;;;;11.03;81.55;96269.09;5076126;28;20035;-49
2021/05/31 01:45:20;;;;;;;7.43;5.00;;;;;;;10.85;82.05;96261.16;5076240;28;20035;-54
2021/05/31 01:47:46;;;;;;;5.72;4.18;;;;;;;10.81;82.14;96263.97;5076267;28;20399;-54
2021/05/31 01:50:13;;;;;;;7.60;4.63;;;;;;;10.82;82.24;96263.03;5076116;28;20036;-58
2021/05/31 01:52:41;;;;;;;5.43;4.55;;;;;;;10.76;82.81;96263.31;5076235;28;20024;-58
2021/05/31 01:55:08;;;;;;;6.30;4.93;;;;;;;10.78;83.00;96264.09;5076163;28;20506;-55
2021/05/31 01:57:35;;;;;;;13.27;5.95;;;;;;;10.77;82.70;96258.00;5075996;28;20013;-52
2021/05/31 02:00:04;;;;;;;6.60;5.85;;;;;;;10.77;82.84;96260.63;5075996;28;20032;-52
2021/05/31 02:02:30;;;;;;;6.90;5.90;;;;;;;10.80;82.43;96268.34;5075791;28;20032;-58
2021/05/31 02:04:56;;;;;;;8.25;6.68;;;;;;;10.79;82.19;96264.03;5075834;28;20021;-53
2021/05/31 02:07:21;;;;;;;7.82;6.03;;;;;;;10.82;82.22;96261.28;5075824;28;20035;-54
2021/05/31 02:09:47;;;;;;;7.10;5.68;;;;;;;10.84;82.38;96269.91;5075834;28;20020;-54
2021/05/31 02:12:13;;;;;;;24.85;6.22;;;;;;;10.92;81.96;96276.56;5075879;28;20425;-54
2021/05/31 02:15:05;;;;;;;7.18;6.07;;;;;;;10.92;82.00;96274.81;5075778;28;20082;-57
2021/05/31 02:17:45;;;;;;;5.95;4.45;;;;;;;10.95;81.33;96266.81;5075773;28;20115;-53
2021/05/31 02:20:14;;;;;;;5.93;3.67;;;;;;;10.93;81.11;96273.88;5075780;28;20382;-58
2021/05/31 02:22:45;;;;;;;5.95;5.15;;;;;;;10.93;81.92;96273.88;5075642;28;20375;-58
2021/05/31 02:25:13;;;;;;;5.53;4.50;;;;;;;10.97;80.96;96272.84;5075561;28;20025;-58
2021/05/31 02:27:39;;;;;;;11.57;4.97;;;;;;;10.99;80.80;96273.63;5075433;28;20052;-52
2021/05/31 02:30:06;;;;;;;6.32;5.13;;;;;;;10.91;80.72;96272.25;5075434;28;20098;-53
2021/05/31 02:32:31;;;;;;;4.55;4.10;;;;;;;10.83;80.98;96265.59;5074545;28;20573;-58
2021/05/31 02:34:58;;;;;;;4.30;3.90;;;;;;;10.78;81.01;96258.88;5075426;28;20103;-54
2021/05/31 02:37:34;;;;;;;4.43;4.03;;;;;;;10.75;81.15;96265.09;5075047;28;20525;-52
2021/05/31 02:40:01;;;;;;;4.30;3.90;;;;;;;10.72;80.86;96262.59;5075312;28;20466;-54
2021/05/31 02:42:27;;;;;;;8.50;3.90;;;;;;;10.66;81.01;96270.72;5075132;28;20032;-56
2021/05/31 02:44:52;;;;;;;4.25;3.78;;;;;;;10.58;81.29;96281.50;5075190;28;20021;-57
2021/05/31 02:47:18;;;;;;;10.95;4.32;;;;;;;10.59;81.74;96275.34;5075151;28;20027;-56
2021/05/31 02:49:43;;;;;;;6.18;3.80;;;;;;;10.56;81.33;96268.47;5075129;28;20536;-53
2021/05/31 02:52:09;;;;;;;6.18;4.00;;;;;;;10.54;81.51;96269.47;5074895;28;20020;-53
2021/05/31 02:54:34;;;;;;;6.65;4.35;;;;;;;10.46;81.50;96260.19;5074974;28;20471;-57
2021/05/31 02:57:00;;;;;;;5.63;3.55;;;;;;;10.42;81.46;96260.34;5074964;28;20028;-54
2021/05/31 02:59:25;;;;;;;4.85;4.35;;;;;;;10.39;81.69;96257.84;5074896;28;20020;-56
2021/05/31 03:01:51;;;;;;;5.70;3.70;;;;;;;10.29;81.27;96257.41;5074906;28;20382;-52
2021/05/31 03:04:16;;;;;;;16.60;4.50;;;;;;;10.34;81.77;96260.66;5074890;28;20387;-51
2021/05/31 03:06:42;;;;;;;4.57;4.13;;;;;;;10.36;81.75;96259.66;5074769;28;20056;-56
2021/05/31 03:09:08;;;;;;;4.10;3.65;;;;;;;10.39;81.95;96263.06;5074728;28;20027;-56
2021/05/31 03:11:33;;;;;;;4.20;3.80;;;;;;;10.41;81.81;96262.09;5074507;28;20016;-54
2021/05/31 03:13:58;;;;;;;5.15;3.83;;;;;;;10.44;81.95;96261.09;5074590;28;20020;-55
2021/05/31 03:16:24;;;;;;;11.35;5.72;;;;;;;10.54;82.37;96265.06;5074511;28;20024;-58
2021/05/31 03:18:50;;;;;;;4.85;3.78;;;;;;;10.55;81.39;96258.94;5074407;28;20113;-58
2021/05/31 03:21:16;;;;;;;5.13;3.40;;;;;;;10.55;81.86;96269.41;5074559;28;20234;-56
2021/05/31 03:23:42;;;;;;;6.22;4.35;;;;;;;10.58;81.62;96264.03;5074407;28;20130;-53
2021/05/31 03:26:08;;;;;;;6.45;3.75;;;;;;;10.66;81.46;96265.47;5074336;28;20055;-52
2021/05/31 03:28:33;;;;;;;4.35;3.60;;;;;;;10.72;81.40;96262.59;5074233;28;20024;-55
2021/05/31 03:30:59;;;;;;;4.25;3.30;;;;;;;10.71;80.82;96263.50;5074252;28;20107;-54
2021/05/31 03:33:25;;;;;;;9.05;4.53;;;;;;;10.60;81.65;96262.19;5074145;28;20025;-53
2021/05/31 03:35:51;;;;;;;4.65;3.40;;;;;;;10.67;81.32;96268.03;5074230;28;20383;-57
2021/05/31 03:38:16;;;;;;;5.30;3.53;;;;;;;10.75;81.41;96267.72;5073985;28;20040;-56
2021/05/31 03:40:42;;;;;;;3.72;3.40;;;;;;;10.85;81.22;96266.38;5074009;28;20381;-55
2021/05/31 03:43:07;;;;;;;7.40;3.78;;;;;;;10.89;81.38;96269.69;5074227;28;20012;-55
2021/05/31 03:45:33;;;;;;;3.53;3.22;;;;;;;10.93;80.48;96259.97;5073950;28;20028;-55
2021/05/31 03:47:59;;;;;;;6.80;3.85;;;;;;;10.90;80.74;96267.94;5073876;28;20100;-55
2021/05/31 03:50:24;;;;;;;6.07;3.55;;;;;;;10.95;80.87;96271.19;5073765;28;20029;-53
2021/05/31 03:52:50;;;;;;;4.47;3.25;;;;;;;10.96;80.85;96265.06;5073818;28;20035;-53
2021/05/31 03:55:17;;;;;;;4.47;3.28;;;;;;;11.05;80.47;96272.50;5073773;28;20028;-53
2021/05/31 03:57:43;;;;;;;4.32;3.92;;;;;;;11.14;80.97;96271.25;5073746;28;20025;-55
2021/05/31 04:00:10;;;;;;;3.45;3.15;;;;;;;11.26;80.85;96272.47;5073731;28;20024;-52
2021/05/31 04:02:41;;;;;;;3.70;3.13;;;;;;;11.30;79.67;96263.56;5073624;28;20040;-56
2021/05/31 04:05:08;;;;;;;;;;;;;;;11.36;79.74;96262.44;5074036;28;20513;-52
2021/05/31 04:13:02;;;;;;;3.60;3.28;;;;;;;11.34;79.46;96267.72;5073567;28;20121;-54
2021/05/31 04:15:28;;;;;;;3.03;2.72;;;;;;;11.28;79.56;96267.16;5073506;28;20052;-54
2021/05/31 04:17:53;;;;;;;7.88;2.97;;;;;;;11.22;80.20;96265.66;5073588;28;20177;-52
2021/05/31 04:20:19;;;;;;;4.45;3.00;;;;;;;11.16;80.09;96265.94;5073360;28;20171;-53
2021/05/31 04:22:45;;;;;;;4.60;2.80;;;;;;;11.17;80.37;96270.28;5073409;28;20592;-54
2021/05/31 04:25:12;;;;;;;6.75;3.25;;;;;;;11.18;80.42;96267.59;5073270;28;20111;-53
2021/05/31 04:27:37;;;;;;;3.40;3.10;;;;;;;11.22;80.66;96263.03;5073216;28;20482;-50
2021/05/31 04:30:05;;;;;;;3.03;2.72;;;;;;;11.25;80.05;96274.25;5073327;28;20036;-54
2021/05/31 04:32:30;;;;;;;5.18;2.72;;;;;;;11.26;79.70;96275.09;5073328;28;20029;-54
2021/05/31 04:34:56;;;;;;;3.83;3.30;;;;;;;11.24;79.86;96269.06;5073822;28;20023;-58
2021/05/31 04:37:22;;;;;;;6.57;3.60;;;;;;;11.27;80.39;96273.31;5073024;28;20493;-55
2021/05/31 04:39:47;;;;;;;6.20;3.63;;;;;;;11.34;80.93;96279.97;5073109;28;20044;-57
2021/05/31 04:42:13;;;;;;;7.93;3.60;;;;;;;11.43;80.55;96271.69;5073108;28;20028;-58
2021/05/31 04:44:38;;;;;;;3.85;3.47;;;;;;;11.45;80.36;96269.00;5073159;28;20024;-53
2021/05/31 04:47:05;;;;;;;3.05;2.85;;;;;;;11.51;79.60;96263.50;5071834;28;20064;-54
2021/05/31 04:49:32;;;;;;;2.72;2.50;;;;;;;11.50;79.32;96265.25;5073081;28;20060;-54
2021/05/31 04:51:58;;;;;;;2.95;2.65;;;;;;;11.52;79.69;96273.03;5073072;28;20028;-57
2021/05/31 04:54:24;;;;;;;2.63;2.42;;;;;;;11.41;79.16;96260.44;5073016;28;20440;-52
2021/05/31 04:56:50;;;;;;;5.30;3.08;;;;;;;11.45;79.67;96271.63;5072501;28;20059;-54
2021/05/31 04:59:15;;;;;;;3.80;2.65;;;;;;;11.44;79.54;96268.16;5073027;28;20097;-55
2021/05/31 05:01:41;;;;;;;8.02;3.17;;;;;;;11.45;79.18;96269.00;5072851;28;20028;-53
2021/05/31 05:04:07;;;;;;;3.58;3.30;;;;;;;11.47;80.05;96277.66;5072930;28;20029;-54
2021/05/31 05:06:35;;;;;;;2.95;2.60;;;;;;;11.36;79.67;96265.91;5072866;28;20390;-51
2021/05/31 05:09:02;;;;;;;2.85;2.60;;;;;;;11.41;80.16;96273.53;5072846;28;20124;-56
2021/05/31 05:11:27;;;;;;;2.40;2.20;;;;;;;11.39;79.43;96272.75;5072888;28;20386;-57
2021/05/31 05:13:53;;;;;;;2.53;2.33;;;;;;;11.35;80.08;96281.69;5072728;28;20016;-51
2021/05/31 05:16:20;;;;;;;3.30;3.00;;;;;;;11.40;80.13;96281.44;5072740;28;20028;-56
2021/05/31 05:18:47;;;;;;;3.00;2.72;;;;;;;11.49;80.18;96281.91;5072879;28;20020;-54
2021/05/31 05:21:16;;;;;;;2.65;2.28;;;;;;;11.58;79.35;96277.13;5072809;28;20153;-56
2021/05/31 05:23:42;;;;;;;5.00;2.28;;;;;;;11.47;79.82;96288.97;5072745;28;20033;-52
2021/05/31 05:26:07;;;;;;;2.95;2.10;;;;;;;11.41;79.85;96283.16;5072601;28;20131;-53
2021/05/31 05:28:36;;;;;;;2.20;2.00;;;;;;;11.45;80.00;96282.09;5071471;28;20488;-56
2021/05/31 05:31:06;;;;;;;2.33;2.20;;;;;;;11.44;79.85;96285.66;5072626;28;20020;-56
2021/05/31 05:33:33;;;;;;;3.05;2.13;;;;;;;11.51;80.32;96287.06;5072666;28;20033;-55
2021/05/31 05:36:12;;;;;;;2.28;2.08;;;;;;;11.47;80.10;96282.91;5072760;28;20113;-53
2021/05/31 05:49:11;;;;;;;3.15;2.28;;;;;;;11.36;79.91;96292.09;5072422;28;20078;-55
2021/05/31 05:51:37;;;;;;;4.40;3.03;;;;;;;11.41;80.46;96291.03;5072358;28;20489;-56
2021/05/31 05:54:04;;;;;;;2.85;1.98;;;;;;;11.53;80.00;96290.44;5072448;28;20481;-56
2021/05/31 05:56:30;;;;;;;3.80;2.30;;;;;;;11.57;80.25;96284.16;5072533;28;20024;-52
2021/05/31 05:58:56;;;;;;;1.92;1.77;;;;;;;11.45;79.25;96282.97;5072440;28;20215;-54
2021/05/31 06:01:23;;;;;;;2.53;2.25;;;;;;;11.41;80.19;96285.78;5072300;28;20154;-57
2021/05/31 06:03:51;;;;;;;2.65;2.40;;;;;;;11.47;80.14;96282.91;5072293;28;20024;-56
2021/05/31 06:06:18;;;;;;;2.83;2.40;;;;;;;11.49;80.43;96279.28;5072396;28;20437;-54
2021/05/31 06:08:44;;;;;;;2.70;2.50;;;;;;;11.52;80.00;96280.91;5074053;28;20029;-54
2021/05/31 06:11:09;;;;;;;3.72;2.53;;;;;;;11.50;80.28;96273.09;5075796;28;20034;-54
2021/05/31 06:13:35;;;;;;;3.00;2.50;;;;;;;11.51;79.72;96271.34;5075871;28;20024;-55
2021/05/31 06:16:01;;;;;;;2.75;2.55;;;;;;;11.48;80.18;96274.97;5074506;28;20027;-58
2021/05/31 06:18:28;;;;;;;2.22;2.03;;;;;;;11.55;80.16;96275.53;5075652;28;20035;-54
2021/05/31 06:20:54;;;;;;;2.70;2.50;;;;;;;11.56;80.07;96268.53;5075622;28;20470;-55
2021/05/31 06:23:20;;;;;;;2.45;2.25;;;;;;;11.59;80.03;96279.69;5075561;28;20479;-54
2021/05/31 06:25:46;;;;;;;3.45;2.20;;;;;;;11.60;79.41;96273.56;5075574;28;20034;-54
2021/05/31 06:28:12;;;;;;;2.80;2.30;;;;;;;11.69;80.55;96279.28;5075445;28;20039;-53
2021/05/31 06:30:38;;;;;;;2.95;2.65;;;;;;;11.77;79.56;96281.53;5075510;28;20024;-58
2021/05/31 06:33:04;;;;;;;2.53;2.33;;;;;;;11.73;79.03;96276.44;5075448;28;20032;-57
2021/05/31 06:35:31;;;;;;;2.50;2.30;;;;;;;11.78;79.48;96284.09;5075437;28;20141;-55
2021/05/31 06:37:57;;;;;;;2.38;2.17;;;;;;;11.82;78.81;96285.63;5075017;28;20048;-55
2021/05/31 06:40:24;;;;;;;2.53;2.30;;;;;;;11.81;79.40;96283.09;5075270;28;20035;-56
2021/05/31 06:42:50;;;;;;;3.55;2.55;;;;;;;11.83;79.21;96292.56;5075239;28;20120;-55
2021/05/31 06:45:23;;;;;;;3.40;3.00;;;;;;;11.97;80.02;96285.81;5075157;28;20095;-56
2021/05/31 06:47:54;;;;;;;2.38;2.17;;;;;;;12.01;78.62;96290.84;5075197;28;20032;-52
2021/05/31 06:50:21;;;;;;;2.60;2.40;;;;;;;12.07;77.92;96286.28;5075200;28;20047;-55
2021/05/31 06:52:48;;;;;;;4.03;2.20;;;;;;;12.10;78.82;96289.59;5074968;28;20518;-57
2021/05/31 06:55:15;;;;;;;4.00;2.05;;;;;;;12.09;77.46;96293.16;5074965;28;20032;-56
2021/05/31 06:57:43;;;;;;;4.88;2.45;;;;;;;12.18;77.99;96290.97;5074950;28;20565;-58
2021/05/31 07:00:11;;;;;;;3.80;2.00;;;;;;;12.17;77.98;96298.03;5074986;28;20029;-54
2021/05/31 07:02:38;;;;;;;1.80;1.70;;;;;;;12.18;77.93;96291.84;5074929;28;20044;-54
2021/05/31 07:05:06;;;;;;;4.78;2.40;;;;;;;12.22;78.42;96301.25;5074797;28;20016;-55
2021/05/31 07:07:32;;;;;;;3.10;2.42;;;;;;;12.27;77.73;96287.91;5074729;28;20028;-55
2021/05/31 07:09:59;;;;;;;4.18;2.03;;;;;;;12.30;77.63;96297.41;5074679;28;20517;-55
2021/05/31 07:12:28;;;;;;;6.43;2.17;;;;;;;12.42;78.51;96294.19;5074610;28;20056;-56
2021/05/31 07:14:56;;;;;;;3.45;2.30;;;;;;;12.56;78.18;96295.28;5074541;28;20063;-57
2021/05/31 07:17:21;;;;;;;2.20;2.00;;;;;;;12.61;76.98;96291.50;5074628;28;20059;-56
2021/05/31 07:19:47;;;;;;;2.35;2.15;;;;;;;12.69;76.84;96292.88;5074222;28;20482;-53
2021/05/31 07:22:17;;;;;;;6.00;2.10;;;;;;;12.75;76.09;96292.56;5074555;28;20024;-56
2021/05/31 07:24:43;;;;;;;2.17;2.00;;;;;;;12.87;76.85;96291.97;5074445;28;20159;-54
2021/05/31 07:27:09;;;;;;;2.10;1.90;;;;;;;12.89;76.07;96294.50;5074328;28;20027;-54
2021/05/31 07:29:37;;;;;;;1.92;1.73;;;;;;;12.86;75.58;96292.03;5074289;28;20021;-53
2021/05/31 07:32:04;;;;;;;2.08;1.92;;;;;;;12.97;76.71;96294.09;5074217;28;20459;-53
2021/05/31 07:34:29;;;;;;;2.35;2.03;;;;;;;12.97;76.67;96294.94;5074322;28;20024;-57
2021/05/31 07:36:55;;;;;;;2.40;2.20;;;;;;;12.98;76.29;96294.00;5073860;28;20135;-54
2021/05/31 07:39:21;;;;;;;4.28;1.75;;;;;;;13.06;77.11;96293.63;5074099;28;20021;-54
2021/05/31 07:41:47;;;;;;;2.00;1.80;;;;;;;13.17;75.88;96286.94;5073991;28;20391;-54
2021/05/31 07:44:12;;;;;;;2.55;2.30;;;;;;;13.23;76.31;96292.75;5074130;28;20032;-54
2021/05/31 07:46:38;;;;;;;1.63;1.52;;;;;;;13.31;75.44;96288.88;5074045;28;20052;-52
2021/05/31 07:49:04;;;;;;;2.38;1.83;;;;;;;13.49;76.55;96287.03;5073986;28;20021;-58
2021/05/31 07:51:31;;;;;;;2.22;1.95;;;;;;;13.66;76.44;96280.88;5073764;28;20031;-56
2021/05/31 07:53:57;;;;;;;2.20;2.00;;;;;;;13.76;77.19;96282.06;5073998;28;20051;-53
2021/05/31 07:56:26;;;;;;;1.90;1.80;;;;;;;13.88;76.76;96283.16;5073995;28;20436;-57
2021/05/31 07:58:54;;;;;;;2.67;1.60;;;;;;;14.00;75.48;96280.81;5073565;28;20097;-56
2021/05/31 08:01:21;;;;;;;1.73;1.63;;;;;;;14.08;75.52;96275.97;5073698;28;20082;-56
2021/05/31 08:03:47;;;;;;;4.80;1.40;;;;;;;14.15;73.43;96269.41;5073591;28;20032;-55
2021/05/31 08:06:13;;;;;;;3.78;1.70;;;;;;;14.20;73.67;96270.94;5073611;28;20099;-56
2021/05/31 08:08:39;;;;;;;4.47;1.77;;;;;;;14.26;74.77;96271.44;5073620;28;20024;-55
2021/05/31 08:11:07;;;;;;;1.60;1.50;;;;;;;14.37;74.14;96270.84;5073536;28;20017;-52
2021/05/31 08:13:33;;;;;;;2.35;1.77;;;;;;;14.48;75.27;96272.81;5073452;28;20028;-56
2021/05/31 08:15:59;;;;;;;3.35;1.58;;;;;;;14.55;74.42;96278.59;5073451;28;20497;-54
2021/05/31 08:18:25;;;;;;;1.67;1.58;;;;;;;14.60;74.75;96279.16;5073370;28;20028;-56
2021/05/31 08:20:51;;;;;;;5.97;1.80;;;;;;;14.68;74.66;96278.72;5073291;28;20162;-52
2021/05/31 08:23:16;;;;;;;1.90;1.80;;;;;;;14.73;74.00;96278.44;5073490;28;20021;-56
2021/05/31 08:25:43;;;;;;;1.70;1.55;;;;;;;14.81;73.02;96278.84;5073439;28;20043;-55
2021/05/31 08:28:09;;;;;;;5.22;1.90;;;;;;;14.70;72.77;96278.63;5073379;28;20025;-55
2021/05/31 08:30:35;;;;;;;1.63;1.52;;;;;;;14.65;70.77;96278.88;5072625;28;20455;-52
2021/05/31 08:33:04;;;;;;;2.13;1.60;;;;;;;14.64;71.37;96277.19;5073100;28;20035;-53
2021/05/31 08:35:30;;;;;;;2.17;1.40;;;;;;;14.67;70.69;96279.66;5073237;28;20024;-57
2021/05/31 08:37:56;;;;;;;2.70;1.50;;;;;;;14.73;71.86;96274.03;5072971;28;20047;-54
2021/05/31 08:40:22;;;;;;;2.03;1.50;;;;;;;14.77;71.40;96270.28;5073019;28;20085;-53
2021/05/31 08:42:48;;;;;;;1.70;1.60;;;;;;;14.85;72.39;96277.75;5073201;28;20375;-58
2021/05/31 08:45:20;;;;;;;1.42;1.33;;;;;;;14.95;72.92;96280.66;5073034;28;20031;-53
2021/05/31 08:47:49;;;;;;;2.00;1.50;;;;;;;15.02;71.88;96273.25;5071914;28;20086;-50
2021/05/31 08:50:21;;;;;;;3.10;1.50;;;;;;;15.02;71.27;96281.16;5072997;28;20078;-55
2021/05/31 08:52:49;;;;;;;2.70;1.38;;;;;;;15.02;71.35;96276.72;5073151;28;20040;-53
2021/05/31 08:55:18;;;;;;;1.60;1.50;;;;;;;14.99;71.67;96270.81;5072952;28;20035;-57
2021/05/31 08:57:44;;;;;;;1.70;1.58;;;;;;;14.95;71.08;96277.19;5072915;28;20031;-54
2021/05/31 09:00:14;;;;;;;2.20;2.00;;;;;;;14.79;71.47;96270.22;5072962;28;20389;-57
2021/05/31 09:02:40;;;;;;;1.80;1.70;;;;;;;14.66;71.30;96268.28;5072916;28;20028;-58
2021/05/31 09:05:08;;;;;;;3.78;2.00;;;;;;;14.68;71.70;96273.44;5072913;28;20437;-50
2021/05/31 09:07:33;;;;;;;1.65;1.50;;;;;;;14.73;71.33;96279.28;5072960;28;20035;-57
2021/05/31 09:10:00;;;;;;;4.68;1.67;;;;;;;14.78;71.15;96273.78;5072876;28;20029;-54
2021/05/31 09:12:34;;;;;;;4.20;1.90;;;;;;;14.78;71.63;96273.78;5071535;28;20058;-56
2021/05/31 09:15:07;;;;;;;1.90;1.80;;;;;;;14.88;71.22;96277.56;5072769;28;20028;-55
2021/05/31 09:17:34;;;;;;;3.63;2.13;;;;;;;14.95;72.19;96270.13;5072711;28;20107;-56
2021/05/31 09:20:01;;;;;;;2.15;1.95;;;;;;;15.00;70.71;96272.50;5072839;28;20024;-54
2021/05/31 09:22:29;;;;;;;3.40;2.38;;;;;;;14.98;69.51;96274.38;5072677;28;20016;-54
2021/05/31 09:24:59;;;;;;;2.10;1.90;;;;;;;15.05;71.38;96275.69;5072685;28;20036;-56
2021/05/31 09:27:26;;;;;;;3.53;2.38;;;;;;;15.08;71.98;96277.31;5072617;28;20034;-56
2021/05/31 09:30:05;;;;;;;2.88;2.50;;;;;;;15.17;72.53;96276.72;5072612;28;20017;-54
2021/05/31 09:32:31;;;;;;;3.13;2.60;;;;;;;15.16;72.52;96275.03;5072670;28;20086;-57
2021/05/31 09:35:08;;;;;;;3.40;2.67;;;;;;;15.21;72.70;96269.50;5072556;28;20020;-56
2021/05/31 09:37:47;;;;;;;4.00;2.00;;;;;;;15.33;71.66;96278.44;5072387;28;20048;-53
2021/05/31 09:40:22;;;;;;;1.98;1.88;;;;;;;15.39;71.32;96278.06;5072535;28;20027;-54
2021/05/31 09:42:55;;;;;;;3.10;2.30;;;;;;;15.25;70.36;96285.03;5075598;28;20474;-56
2021/05/31 09:45:22;;;;;;;3.10;2.20;;;;;;;15.35;70.17;96284.47;5076360;28;20064;-55
2021/05/31 09:47:48;;;;;;;4.30;1.98;;;;;;;15.37;69.09;96275.53;5076345;28;20097;-58
2021/05/31 09:50:53;;;;;;;2.33;2.17;;;;;;;15.47;68.32;96272.31;5076193;28;20071;-54
2021/05/31 09:53:19;;;;;;;3.03;1.85;;;;;;;15.50;67.42;96272.97;5045279;28;20158;-54
2021/05/31 09:55:47;;;;;;;2.22;1.65;;;;;;;15.50;66.59;96264.22;5076168;28;20379;-54
2021/05/31 09:58:15;;;;;;;3.67;1.90;;;;;;;15.39;67.02;96256.97;5076186;28;20017;-58
2021/05/31 10:00:53;;;;;;;2.08;1.88;;;;;;;15.32;67.78;96266.22;5075994;28;20070;-55
2021/05/31 10:03:25;;;;;;;3.08;1.92;;;;;;;15.23;66.20;96255.28;5076027;28;20060;-53
2021/05/31 10:10:56;;;;;;;1.70;1.50;;;;;;;15.32;69.57;96253.03;5075991;28;20086;-53
2021/05/31 10:13:23;;;;;;;2.35;1.70;;;;;;;15.36;69.40;96252.75;5075656;28;20116;-53
2021/05/31 10:15:49;;;;;;;2.30;1.80;;;;;;;15.41;71.20;96250.66;5075650;28;20052;-54
2021/05/31 10:18:16;;;;;;;5.43;1.45;;;;;;;15.44;70.16;96249.63;5075622;28;20028;-53
2021/05/31 10:20:43;;;;;;;2.30;1.30;;;;;;;15.38;67.19;96255.31;5075637;28;20035;-52
2021/05/31 10:23:11;;;;;;;1.80;1.13;;;;;;;15.44;68.34;96251.44;5075647;28;20066;-54
2021/05/31 10:25:42;;;;;;;1.52;1.42;;;;;;;15.52;67.78;96244.72;5075573;28;20082;-57
2021/05/31 10:28:09;;;;;;;2.38;1.30;;;;;;;15.55;65.24;96246.31;5075621;28;20438;-55
2021/05/31 10:31:03;;;;;;;3.05;1.33;;;;;;;15.55;66.82;96243.69;5075540;28;20477;-51
2021/05/31 10:33:29;;;;;;;1.48;1.30;;;;;;;15.58;67.04;96245.28;5072960;28;20090;-54
2021/05/31 10:36:07;;;;;;;2.45;1.33;;;;;;;15.73;69.68;96249.59;5075421;28;20028;-55
2021/05/31 10:38:36;;;;;;;4.53;1.35;;;;;;;15.84;68.23;96243.63;5075362;28;20137;-54
2021/05/31 10:41:11;;;;;;;3.55;1.23;;;;;;;16.02;67.02;96232.88;5075311;28;20115;-56
2021/05/31 10:43:49;;;;;;;1.50;1.40;;;;;;;16.05;65.51;96230.03;5075324;28;20055;-53
2021/05/31 10:46:19;;;;;;;4.40;1.60;;;;;;;15.91;65.66;96237.03;5075125;28;20062;-51
2021/05/31 10:48:53;;;;;;;1.70;1.50;;;;;;;15.85;65.13;96234.78;5075218;28;20021;-54
2021/05/31 10:51:29;;;;;;;3.78;1.58;;;;;;;15.75;67.08;96231.88;5075160;28;20024;-56
2021/05/31 10:54:09;;;;;;;3.05;1.42;;;;;;;15.94;65.48;96229.84;5074422;28;20109;-54
2021/05/31 10:56:36;;;;;;;1.75;1.45;;;;;;;16.04;67.60;96226.53;5074973;28;20025;-57
2021/05/31 10:59:03;;;;;;;2.20;1.70;;;;;;;16.14;65.89;96224.13;5075067;28;20021;-53
2021/05/31 11:01:28;;;;;;;2.90;1.60;;;;;;;16.28;68.35;96215.31;5074972;28;20068;-53
2021/05/31 11:04:03;;;;;;;2.85;1.40;;;;;;;16.43;66.11;96217.88;5074802;28;20028;-56
2021/05/31 11:06:33;;;;;;;2.00;1.70;;;;;;;16.44;65.07;96214.31;5074946;28;20036;-51
2021/05/31 11:09:20;;;;;;;4.22;1.50;;;;;;;16.54;65.57;96207.47;5074691;28;20466;-56
2021/05/31 11:11:56;;;;;;;3.10;1.65;;;;;;;16.63;65.97;96205.13;5074513;28;20441;-51
2021/05/31 11:14:33;;;;;;;2.63;1.60;;;;;;;16.65;65.83;96205.88;5074650;28;20029;-53
2021/05/31 11:17:07;;;;;;;3.70;1.40;;;;;;;16.67;64.56;96212.75;5074558;28;20013;-53
2021/05/31 11:19:36;;;;;;;2.58;1.80;;;;;;;16.67;63.10;96198.69;5073369;28;20028;-51
2021/05/31 11:22:21;;;;;;;2.95;1.30;;;;;;;16.32;63.03;96202.78;5074974;28;20462;-53
2021/05/31 11:25:01;;;;;;;1.92;1.58;;;;;;;16.25;63.66;96202.31;5074263;28;20071;-57
2021/05/31 11:27:31;;;;;;;4.43;1.52;;;;;;;16.35;65.75;96199.94;5074425;28;20040;-54
2021/05/31 11:29:59;;;;;;;2.33;1.50;;;;;;;16.39;64.44;96193.50;5074409;28;20553;-55
2021/05/31 11:32:26;;;;;;;1.50;1.40;;;;;;;16.54;64.25;96194.25;5074199;28;20093;-52
2021/05/31 11:34:57;;;;;;;4.13;1.60;;;;;;;16.51;62.22;96194.47;5074124;28;20099;-55
2021/05/31 11:37:24;;;;;;;5.22;1.90;;;;;;;16.54;65.83;96194.25;5074052;28;20086;-51
2021/05/31 11:39:50;;;;;;;1.52;1.42;;;;;;;16.64;66.58;96189.19;5074107;28;20482;-56
2021/05/31 11:42:16;;;;;;;1.85;1.50;;;;;;;16.59;64.51;96187.81;5074131;28;20012;-56
2021/05/31 11:44:53;;;;;;;2.10;1.30;;;;;;;16.60;64.16;96193.00;5074037;28;20034;-54
2021/05/31 11:47:27;;;;;;;1.88;1.63;;;;;;;16.67;63.05;96190.75;5074217;28;20024;-58
2021/05/31 11:49:54;;;;;;;2.72;1.70;;;;;;;16.66;64.21;96195.22;5073898;28;20066;-58
2021/05/31 11:52:23;;;;;;;5.13;1.40;;;;;;;16.65;65.00;96195.31;5073817;28;20077;-59
2021/05/31 11:54:49;;;;;;;1.95;1.67;;;;;;;16.63;64.45;96187.50;5073782;28;20036;-56
2021/05/31 11:57:20;;;;;;;1.60;1.50;;;;;;;16.61;62.90;96191.19;5073839;28;20024;-56
2021/05/31 11:59:48;;;;;;;3.60;2.13;;;;;;;16.64;64.35;96190.97;5073726;28;20021;-59